createdAt,value
2019-05-21T00:00:32.153Z,23.50
2019-05-21T00:03:15.988Z,20.60
2019-05-21T00:06:07.314Z,18.73
2019-05-21T00:08:52.545Z,19.37
2019-05-21T00:11:36.808Z,20.75
2019-05-21T00:14:28.050Z,21.20
2019-05-21T00:17:11.623Z,23.02
2019-05-21T00:20:02.829Z,25.55
2019-05-21T00:22:46.873Z,23.87
2019-05-21T00:25:38.082Z,25.40
2019-05-21T00:28:42.530Z,25.17
2019-05-21T00:32:11.955Z,25.92
2019-05-21T00:35:15.373Z,29.10
2019-05-21T00:38:46.382Z,27.73
2019-05-21T00:42:16.631Z,26.77
2019-05-21T00:45:00.947Z,29.98
2019-05-21T00:47:52.157Z,30.43
2019-05-21T00:50:36.159Z,29.27
2019-05-21T00:53:27.440Z,32.13
2019-05-21T00:56:11.161Z,30.45
2019-05-21T00:59:02.321Z,31.37
2019-05-21T01:01:45.863Z,33.05
2019-05-21T01:04:36.945Z,33.70
2019-05-21T01:07:20.848Z,31.27
2019-05-21T01:10:12.063Z,29.42
2019-05-21T01:12:56.383Z,31.25
2019-05-21T01:15:47.528Z,29.55
2019-05-21T01:18:31.044Z,29.15
2019-05-21T01:21:23.210Z,28.20
2019-05-21T01:24:07.224Z,27.60
2019-05-21T01:26:58.510Z,26.00
2019-05-21T01:29:42.312Z,28.25
2019-05-21T01:32:33.534Z,25.60
2019-05-21T01:35:17.719Z,25.88
2019-05-21T01:38:08.985Z,24.05
2019-05-21T01:40:52.541Z,25.72
2019-05-21T01:43:36.154Z,24.92
2019-05-21T01:46:27.347Z,23.40
2019-05-21T01:49:11.024Z,24.85
2019-05-21T01:51:42.966Z,22.75
2019-05-21T01:54:28.062Z,23.05
2019-05-21T01:57:19.507Z,22.95
2019-05-21T02:00:03.200Z,22.65
2019-05-21T02:02:54.499Z,24.50
2019-05-21T02:05:38.659Z,21.97
2019-05-21T02:08:29.861Z,22.00
2019-05-21T02:11:13.299Z,22.77
2019-05-21T02:14:04.499Z,23.42
2019-05-21T02:16:48.665Z,20.50
2019-05-21T02:19:39.811Z,22.48
2019-05-21T02:22:24.220Z,18.70
2019-05-21T02:25:15.424Z,19.70
2019-05-21T02:27:59.485Z,16.02
2019-05-21T02:33:22.428Z,16.45
2019-05-21T02:35:55.159Z,20.48
2019-05-21T02:38:27.393Z,16.70
2019-05-21T02:40:59.855Z,15.93
2019-05-21T02:43:32.004Z,16.48
2019-05-21T02:46:04.185Z,16.35
2019-05-21T02:48:36.181Z,17.60
2019-05-21T02:51:08.313Z,16.97
2019-05-21T02:53:40.385Z,16.65
2019-05-21T02:56:12.454Z,16.73
2019-05-21T02:58:44.813Z,16.45
2019-05-21T03:01:37.143Z,14.65
2019-05-21T03:04:09.575Z,17.23
2019-05-21T03:06:41.748Z,19.15
2019-05-21T03:09:13.967Z,17.85
2019-05-21T03:11:46.048Z,17.70
2019-05-21T03:14:18.070Z,16.40
2019-05-21T03:16:50.161Z,16.75
2019-05-21T03:19:22.235Z,17.27
2019-05-21T03:21:54.324Z,17.10
2019-05-21T03:24:26.780Z,18.45
2019-05-21T03:26:58.894Z,18.30
2019-05-21T03:29:30.983Z,17.23
2019-05-21T03:32:03.023Z,17.52
2019-05-21T03:34:35.062Z,17.90
2019-05-21T03:37:07.174Z,17.27
2019-05-21T03:39:39.184Z,17.70
2019-05-21T03:42:11.299Z,19.77
2019-05-21T03:44:58.333Z,17.12
2019-05-21T03:47:17.131Z,16.32
2019-05-21T03:49:49.341Z,17.02
2019-05-21T03:52:21.415Z,15.38
2019-05-21T03:54:53.671Z,15.03
2019-05-21T03:57:25.711Z,15.80
2019-05-21T03:59:57.724Z,16.17
2019-05-21T04:02:29.866Z,16.42
2019-05-21T04:05:01.893Z,17.00
2019-05-21T04:07:34.014Z,16.57
2019-05-21T04:10:12.939Z,16.52
2019-05-21T04:12:48.568Z,15.88
2019-05-21T04:15:22.205Z,16.87
2019-05-21T04:18:03.374Z,16.50
2019-05-21T04:20:35.616Z,16.82
2019-05-21T04:23:07.767Z,16.27
2019-05-21T04:25:39.710Z,15.63
2019-05-21T04:28:11.840Z,15.60
2019-05-21T04:30:43.940Z,16.25
2019-05-21T04:33:16.117Z,14.83
2019-05-21T04:35:48.131Z,16.42
2019-05-21T04:38:20.267Z,14.30
2019-05-21T04:40:53.362Z,15.18
2019-05-21T04:43:25.365Z,16.00
2019-05-21T04:45:57.506Z,14.90
2019-05-21T04:48:29.745Z,16.05
2019-05-21T04:51:01.820Z,16.35
2019-05-21T04:53:34.886Z,15.38
2019-05-21T04:56:07.079Z,13.30
2019-05-21T04:58:39.327Z,13.20
2019-05-21T05:01:11.576Z,11.95
2019-05-21T05:03:43.628Z,13.53
2019-05-21T05:06:15.776Z,12.40
2019-05-21T05:08:47.874Z,11.93
2019-05-21T05:11:19.920Z,12.13
2019-05-21T05:13:53.338Z,11.10
2019-05-21T05:16:26.668Z,11.05
2019-05-21T05:18:59.772Z,11.53
2019-05-21T05:21:31.917Z,11.03
2019-05-21T05:24:04.043Z,10.98
2019-05-21T05:26:35.999Z,10.72
2019-05-21T05:29:08.061Z,10.45
2019-05-21T05:31:40.199Z,10.25
2019-05-21T05:34:12.318Z,10.25
2019-05-21T05:36:44.361Z,10.85
2019-05-21T05:39:17.997Z,9.43
2019-05-21T05:41:50.152Z,10.05
2019-05-21T05:44:22.383Z,9.53
2019-05-21T05:46:54.556Z,8.73
2019-05-21T05:49:34.507Z,7.75
2019-05-21T05:52:06.580Z,7.80
2019-05-21T05:54:38.631Z,7.45
2019-05-21T05:57:11.885Z,6.80
2019-05-21T05:59:44.066Z,6.17
2019-05-21T06:02:16.199Z,6.37
2019-05-21T06:04:48.668Z,7.15
2019-05-21T06:07:20.584Z,7.15
2019-05-21T06:09:58.685Z,4.90
2019-05-21T06:12:32.497Z,5.30
2019-05-21T06:15:05.268Z,5.42
2019-05-21T06:17:37.369Z,5.85
2019-05-21T06:20:10.064Z,4.10
2019-05-21T06:22:42.141Z,5.40
2019-05-21T06:25:14.324Z,4.30
2019-05-21T06:27:46.774Z,3.87
2019-05-21T06:30:19.754Z,4.50
2019-05-21T06:32:52.771Z,3.92
2019-05-21T06:35:24.884Z,2.92
2019-05-21T06:37:57.667Z,3.22
2019-05-21T06:40:38.654Z,2.90
2019-05-21T06:43:10.883Z,3.50
2019-05-21T06:45:43.917Z,3.35
2019-05-21T06:48:34.736Z,2.70
2019-05-21T06:51:10.344Z,2.90
2019-05-21T06:53:44.403Z,2.55
2019-05-21T06:56:16.739Z,2.60
2019-05-21T06:58:48.902Z,3.15
2019-05-21T07:01:28.069Z,2.62
2019-05-21T07:03:55.237Z,2.65
2019-05-21T07:06:31.524Z,2.45
2019-05-21T07:09:07.858Z,2.85
2019-05-21T07:11:40.875Z,2.70
2019-05-21T07:14:13.153Z,2.65
2019-05-21T07:16:48.888Z,3.22
2019-05-21T07:19:24.060Z,2.65
2019-05-21T07:22:11.526Z,2.33
2019-05-21T07:24:29.814Z,2.10
2019-05-21T07:27:01.970Z,2.70
2019-05-21T07:29:34.632Z,2.52
2019-05-21T07:32:06.843Z,3.10
2019-05-21T07:34:38.934Z,2.62
2019-05-21T07:37:10.934Z,2.20
2019-05-21T07:39:42.962Z,2.45
2019-05-21T07:42:15.229Z,2.17
2019-05-21T07:44:48.477Z,2.17
2019-05-21T07:47:20.531Z,2.20
2019-05-21T07:49:52.599Z,3.77
2019-05-21T07:52:24.773Z,2.55
2019-05-21T07:54:56.971Z,2.30
2019-05-21T07:57:29.090Z,2.08
2019-05-21T08:00:01.126Z,1.95
2019-05-21T08:02:34.344Z,2.40
2019-05-21T08:05:06.629Z,2.00
2019-05-21T08:07:38.749Z,2.20
2019-05-21T08:10:11.307Z,2.20
2019-05-21T08:12:43.614Z,2.50
2019-05-21T08:15:16.174Z,2.42
2019-05-21T08:17:48.319Z,2.62
2019-05-21T08:20:21.449Z,2.00
2019-05-21T08:22:53.493Z,2.58
2019-05-21T08:25:25.477Z,2.10
2019-05-21T08:27:57.587Z,2.17
2019-05-21T08:30:29.707Z,2.27
2019-05-21T08:33:01.733Z,3.35
2019-05-21T08:35:33.871Z,3.10
2019-05-21T08:38:06.881Z,2.87
2019-05-21T08:40:39.143Z,2.40
2019-05-21T08:43:11.107Z,3.00
2019-05-21T08:45:43.147Z,2.67
2019-05-21T08:48:15.116Z,3.20
2019-05-21T08:50:47.099Z,2.80
2019-05-21T08:53:19.177Z,2.77
2019-05-21T08:55:51.045Z,2.90
2019-05-21T08:58:23.565Z,2.70
2019-05-21T09:00:55.730Z,2.72
2019-05-21T09:03:28.210Z,2.90
2019-05-21T09:06:00.265Z,2.72
2019-05-21T09:08:32.214Z,2.90
2019-05-21T09:11:04.264Z,2.60
2019-05-21T09:13:37.412Z,2.20
2019-05-21T09:16:09.383Z,2.83
2019-05-21T09:18:41.511Z,3.00
2019-05-21T09:21:13.588Z,2.60
2019-05-21T09:23:45.886Z,2.85
2019-05-21T09:26:18.267Z,2.60
2019-05-21T09:28:50.506Z,2.92
2019-05-21T09:31:22.491Z,2.55
2019-05-21T09:33:54.432Z,3.22
2019-05-21T09:36:26.464Z,3.33
2019-05-21T09:38:58.497Z,2.72
2019-05-21T09:41:30.715Z,2.35
2019-05-21T09:44:03.145Z,2.47
2019-05-21T09:46:35.251Z,2.95
2019-05-21T09:49:07.208Z,2.83
2019-05-21T09:51:39.318Z,3.05
2019-05-21T09:54:11.422Z,2.85
2019-05-21T09:56:43.534Z,2.80
2019-05-21T09:59:43.430Z,2.70
2019-05-21T10:02:20.113Z,3.30
2019-05-21T10:04:52.207Z,3.52
2019-05-21T10:07:39.044Z,3.83
2019-05-21T10:09:58.864Z,3.40
2019-05-21T10:12:31.052Z,3.37
2019-05-21T10:15:04.508Z,4.10
2019-05-21T10:17:36.689Z,3.50
2019-05-21T10:20:08.988Z,3.47
2019-05-21T10:22:41.313Z,4.33
2019-05-21T10:25:15.895Z,4.03
2019-05-21T10:27:48.884Z,3.25
2019-05-21T10:30:21.026Z,4.12
2019-05-21T10:32:53.158Z,3.22
2019-05-21T10:35:25.542Z,3.70
2019-05-21T10:37:57.627Z,3.27
2019-05-21T10:40:29.833Z,3.80
2019-05-21T10:43:01.761Z,3.45
2019-05-21T10:45:33.911Z,4.03
2019-05-21T10:48:06.011Z,4.08
2019-05-21T10:50:38.131Z,4.60
2019-05-21T10:53:10.311Z,4.97
2019-05-21T10:55:42.461Z,4.50
2019-05-21T10:58:14.552Z,4.10
2019-05-21T11:00:48.434Z,3.80
2019-05-21T11:03:25.489Z,4.65
2019-05-21T11:06:09.516Z,4.42
2019-05-21T11:08:31.207Z,4.00
2019-05-21T11:11:03.378Z,4.80
2019-05-21T11:13:35.490Z,5.33
2019-05-21T11:16:07.527Z,4.62
2019-05-21T11:18:40.407Z,5.75
2019-05-21T11:21:12.442Z,4.55
2019-05-21T11:23:44.390Z,4.80
2019-05-21T11:26:16.594Z,4.65
2019-05-21T11:28:48.585Z,4.33
2019-05-21T11:31:21.040Z,4.42
2019-05-21T11:33:53.155Z,4.97
2019-05-21T11:36:25.279Z,4.10
2019-05-21T11:38:57.427Z,4.75
2019-05-21T11:41:29.546Z,4.53
2019-05-21T11:44:01.515Z,6.10
2019-05-21T11:46:33.554Z,4.60
2019-05-21T11:49:05.677Z,4.30
2019-05-21T11:51:37.714Z,4.80
2019-05-21T11:54:09.841Z,4.22
2019-05-21T11:56:41.931Z,4.72
2019-05-21T11:59:13.987Z,5.47
2019-05-21T12:01:46.085Z,4.10
2019-05-21T12:04:18.279Z,4.45
2019-05-21T12:06:50.381Z,4.30
2019-05-21T12:09:22.882Z,3.60
2019-05-21T12:11:54.813Z,4.33
2019-05-21T12:14:26.852Z,4.67
2019-05-21T12:16:58.961Z,5.05
2019-05-21T12:19:31.071Z,4.45
2019-05-21T12:22:03.118Z,4.53
2019-05-21T12:24:35.193Z,4.53
2019-05-21T12:27:07.437Z,4.20
2019-05-21T12:29:39.303Z,4.20
2019-05-21T12:32:11.363Z,3.95
2019-05-21T12:34:44.535Z,4.85
2019-05-21T12:37:16.612Z,4.28
2019-05-21T12:39:48.763Z,4.00
2019-05-21T12:42:20.861Z,4.45
2019-05-21T12:44:52.885Z,4.03
2019-05-21T12:47:24.930Z,3.37
2019-05-21T12:49:57.059Z,4.42
2019-05-21T12:52:29.392Z,4.22
2019-05-21T12:55:01.505Z,3.95
2019-05-21T12:57:33.554Z,4.20
2019-05-21T13:00:09.582Z,4.33
2019-05-21T13:02:41.807Z,4.47
2019-05-21T13:05:15.689Z,3.27
2019-05-21T13:07:47.748Z,3.80
2019-05-21T13:10:19.879Z,4.60
2019-05-21T13:12:51.894Z,3.70
2019-05-21T13:15:24.361Z,3.80
2019-05-21T13:17:56.468Z,3.95
2019-05-21T13:20:29.651Z,4.78
2019-05-21T13:23:01.920Z,4.97
2019-05-21T13:25:34.444Z,4.85
2019-05-21T13:28:07.465Z,4.67
2019-05-21T13:30:39.587Z,4.12
2019-05-21T13:33:11.758Z,4.05
2019-05-21T13:35:43.970Z,4.00
2019-05-21T13:38:16.087Z,5.28
2019-05-21T13:40:48.695Z,4.65
2019-05-21T13:43:21.537Z,4.80
2019-05-21T13:45:53.992Z,5.00
2019-05-21T13:48:26.249Z,4.92
2019-05-21T13:50:58.249Z,5.03
2019-05-21T13:53:30.388Z,4.37
2019-05-21T13:56:02.458Z,5.50
2019-05-21T13:58:34.684Z,5.20
2019-05-21T14:01:07.997Z,5.62
2019-05-21T14:03:40.376Z,4.50
2019-05-21T14:06:12.487Z,5.08
2019-05-21T14:08:45.009Z,5.60
2019-05-21T14:11:17.099Z,5.60
2019-05-21T14:13:49.451Z,5.87
2019-05-21T14:16:21.686Z,6.00
2019-05-21T14:18:53.912Z,5.45
2019-05-21T14:21:25.941Z,5.03
2019-05-21T14:23:58.109Z,5.40
2019-05-21T14:26:30.356Z,4.72
2019-05-21T14:29:03.539Z,5.75
2019-05-21T14:31:35.896Z,4.72
2019-05-21T14:34:07.968Z,5.22
2019-05-21T14:36:41.095Z,4.97
2019-05-21T14:39:15.546Z,5.22
2019-05-21T14:41:47.628Z,6.50
2019-05-21T14:44:20.039Z,5.62
2019-05-21T14:46:52.212Z,4.92
2019-05-21T14:49:24.363Z,5.83
2019-05-21T14:51:56.418Z,5.17
2019-05-21T14:54:29.091Z,5.60
2019-05-21T14:57:02.926Z,6.25
2019-05-21T14:59:35.298Z,5.40
2019-05-21T15:02:07.724Z,5.65
2019-05-21T15:04:40.073Z,5.55
2019-05-21T15:07:29.822Z,5.90
2019-05-21T15:10:02.008Z,5.92
2019-05-21T15:12:34.136Z,6.00
2019-05-21T15:15:06.547Z,5.33
2019-05-21T15:17:38.721Z,5.12
2019-05-21T15:20:18.439Z,5.90
2019-05-21T15:22:50.506Z,5.40
2019-05-21T15:25:28.336Z,4.95
2019-05-21T15:28:00.445Z,4.95
2019-05-21T15:30:32.628Z,5.70
2019-05-21T15:33:04.749Z,4.30
2019-05-21T15:35:36.820Z,4.55
2019-05-21T15:38:08.809Z,4.65
2019-05-21T15:40:42.040Z,4.42
2019-05-21T15:43:15.265Z,5.85
2019-05-21T15:45:47.573Z,5.12
2019-05-21T15:48:27.248Z,4.95
2019-05-21T15:50:59.395Z,4.90
2019-05-21T15:53:31.496Z,4.65
2019-05-21T15:56:06.537Z,5.47
2019-05-21T15:58:47.043Z,5.37
2019-05-21T16:01:32.097Z,5.53
2019-05-21T16:04:07.907Z,6.37
2019-05-21T16:06:43.685Z,5.40
2019-05-21T16:09:21.492Z,5.33
2019-05-21T16:14:39.494Z,5.87
2019-05-21T16:17:11.754Z,5.40
2019-05-21T16:19:43.752Z,4.92
2019-05-21T16:22:15.902Z,4.30
2019-05-21T16:24:47.981Z,5.12
2019-05-21T16:27:20.006Z,4.95
2019-05-21T16:29:52.193Z,5.33
2019-05-21T16:32:39.724Z,5.85
2019-05-21T16:35:14.729Z,5.30
2019-05-21T16:37:46.764Z,5.47
2019-05-21T16:40:20.986Z,5.83
2019-05-21T16:42:57.001Z,5.55
2019-05-21T16:45:29.186Z,5.62
2019-05-21T16:48:01.276Z,6.40
2019-05-21T16:50:33.922Z,5.60
2019-05-21T16:53:06.006Z,6.37
2019-05-21T16:55:41.648Z,6.00
2019-05-21T16:59:04.030Z,4.80
2019-05-21T17:01:39.356Z,5.15
2019-05-21T17:04:11.824Z,6.35
2019-05-21T17:06:44.331Z,5.50
2019-05-21T17:09:16.461Z,6.45
2019-05-21T17:11:59.597Z,5.72
2019-05-21T17:14:22.539Z,6.00
2019-05-21T17:16:54.553Z,5.95
2019-05-21T17:19:26.946Z,6.35
2019-05-21T17:22:00.994Z,6.17
2019-05-21T17:24:56.382Z,5.80
2019-05-21T17:27:33.347Z,6.17
2019-05-21T17:30:27.975Z,7.10
2019-05-21T17:33:11.235Z,5.97
2019-05-21T17:35:47.987Z,5.78
2019-05-21T17:38:43.721Z,5.12
2019-05-21T17:41:23.587Z,4.60
2019-05-21T17:44:19.881Z,4.10
2019-05-21T17:46:53.377Z,4.65
2019-05-21T17:49:25.749Z,4.87
2019-05-21T17:51:59.302Z,5.10
2019-05-21T17:54:59.788Z,5.30
2019-05-21T17:57:32.844Z,4.87
2019-05-21T18:00:09.971Z,5.37
2019-05-21T18:02:42.465Z,5.65
2019-05-21T18:05:15.280Z,5.60
2019-05-21T18:07:49.268Z,6.03
2019-05-21T18:10:25.548Z,5.00
2019-05-21T18:12:59.895Z,4.70
2019-05-21T18:15:33.207Z,5.20
2019-05-21T18:18:05.711Z,5.13
2019-05-21T18:20:40.223Z,4.35
2019-05-21T18:23:13.712Z,5.05
2019-05-21T18:25:46.176Z,5.33
2019-05-21T18:28:22.510Z,5.08
2019-05-21T18:30:55.091Z,5.10
2019-05-21T18:33:27.147Z,4.97
2019-05-21T18:35:59.246Z,5.92
2019-05-21T18:38:31.487Z,5.62
2019-05-21T18:41:03.477Z,4.97
2019-05-21T18:43:36.038Z,5.70
2019-05-21T18:46:08.667Z,6.30
2019-05-21T18:48:42.229Z,6.07
2019-05-21T18:51:14.568Z,5.33
2019-05-21T18:53:49.808Z,6.12
2019-05-21T18:56:22.053Z,6.05
2019-05-21T18:58:54.644Z,5.65
2019-05-21T19:01:26.723Z,6.53
2019-05-21T19:03:59.172Z,5.80
2019-05-21T19:06:31.343Z,6.78
2019-05-21T19:09:04.192Z,7.20
2019-05-21T19:11:40.695Z,6.95
2019-05-21T19:14:24.691Z,7.00
2019-05-21T19:17:16.136Z,6.20
2019-05-21T19:20:14.612Z,6.95
2019-05-21T19:22:48.052Z,7.42
2019-05-21T19:25:31.005Z,8.15
2019-05-21T19:28:32.378Z,8.48
2019-05-21T19:31:49.295Z,9.40
2019-05-21T19:34:21.019Z,8.85
2019-05-21T19:37:01.196Z,9.15
2019-05-21T19:39:45.646Z,10.10
2019-05-21T19:42:32.617Z,9.75
2019-05-21T19:45:21.481Z,10.93
2019-05-21T19:48:24.036Z,9.83
2019-05-21T19:51:00.006Z,11.03
2019-05-21T19:53:30.035Z,10.23
2019-05-21T19:56:02.735Z,11.40
2019-05-21T19:58:35.110Z,10.65
2019-05-21T20:01:07.944Z,10.38
2019-05-21T20:03:40.227Z,11.45
2019-05-21T20:06:17.649Z,11.38
2019-05-21T20:08:49.784Z,10.43
2019-05-21T20:11:21.878Z,11.22
2019-05-21T20:13:53.914Z,12.13
2019-05-21T20:16:26.457Z,12.93
2019-05-21T20:18:58.593Z,13.50
2019-05-21T20:21:32.107Z,13.35
2019-05-21T20:24:06.231Z,13.00
2019-05-21T20:26:39.447Z,13.38
2019-05-21T20:29:12.718Z,12.10
2019-05-21T20:31:44.917Z,13.48
2019-05-21T20:34:17.669Z,12.60
2019-05-21T20:36:49.800Z,12.20
2019-05-21T20:39:22.735Z,12.75
2019-05-21T20:41:55.660Z,15.10
2019-05-21T20:44:28.340Z,13.95
2019-05-21T20:47:00.733Z,15.30
2019-05-21T20:49:32.835Z,14.50
2019-05-21T20:52:18.273Z,16.30
2019-05-21T20:54:42.729Z,15.63
2019-05-21T20:57:15.394Z,16.73
2019-05-21T20:59:47.364Z,15.93
2019-05-21T21:02:19.739Z,17.50
2019-05-21T21:04:52.290Z,17.60
2019-05-21T21:07:24.663Z,16.63
2019-05-21T21:09:56.792Z,17.52
2019-05-21T21:12:28.969Z,16.67
2019-05-21T21:15:01.202Z,15.58
2019-05-21T21:17:33.448Z,17.17
2019-05-21T21:20:06.548Z,17.27
2019-05-21T21:22:38.703Z,17.15
2019-05-21T21:25:12.186Z,18.55
2019-05-21T21:27:44.641Z,18.05
2019-05-21T21:30:17.168Z,18.55
2019-05-21T21:32:49.460Z,18.00
2019-05-21T21:35:22.851Z,17.62
2019-05-21T21:37:55.304Z,17.42
2019-05-21T21:40:28.030Z,18.10
2019-05-21T21:43:00.329Z,18.35
2019-05-21T21:45:33.123Z,17.30
2019-05-21T21:48:05.619Z,17.85
2019-05-21T21:50:39.631Z,17.73
2019-05-21T21:53:13.693Z,19.27
2019-05-21T21:55:45.714Z,18.52
2019-05-21T21:58:17.837Z,18.48
2019-05-21T22:01:39.472Z,19.02
2019-05-21T22:04:13.555Z,19.17
2019-05-21T22:06:47.450Z,18.65
2019-05-21T22:09:23.712Z,18.45
2019-05-21T22:11:56.851Z,18.85
2019-05-21T22:14:29.886Z,18.45
2019-05-21T22:17:02.118Z,17.70
2019-05-21T22:19:34.428Z,19.20
2019-05-21T22:22:07.380Z,20.40
2019-05-21T22:24:39.797Z,19.12
2019-05-21T22:27:11.925Z,19.90
2019-05-21T22:29:44.018Z,20.30
2019-05-21T22:32:16.815Z,22.17
2019-05-21T22:34:48.975Z,19.37
2019-05-21T22:37:23.576Z,18.90
2019-05-21T22:39:55.743Z,19.15
2019-05-21T22:42:28.207Z,19.07
2019-05-21T22:45:08.031Z,19.30
2019-05-21T22:47:34.377Z,18.87
2019-05-21T22:50:08.468Z,19.10
2019-05-21T22:52:40.586Z,18.17
2019-05-21T22:55:12.805Z,20.10
2019-05-21T22:57:45.084Z,18.85
2019-05-21T23:00:17.499Z,20.40
2019-05-21T23:02:49.572Z,19.05
2019-05-21T23:05:23.135Z,18.37
2019-05-21T23:07:55.571Z,19.52
2019-05-21T23:10:27.757Z,20.95
2019-05-21T23:12:59.688Z,20.08
2019-05-21T23:15:31.646Z,19.70
2019-05-21T23:18:21.374Z,20.65
2019-05-21T23:20:59.201Z,20.95
2019-05-21T23:23:36.308Z,19.80
2019-05-21T23:26:09.177Z,20.13
2019-05-21T23:28:42.307Z,20.23
2019-05-21T23:31:16.074Z,19.42
2019-05-21T23:33:49.916Z,19.65
2019-05-21T23:36:23.341Z,21.30
2019-05-21T23:38:55.460Z,21.80
2019-05-21T23:41:28.727Z,22.07
2019-05-21T23:44:01.840Z,20.70
2019-05-21T23:46:36.028Z,22.00
2019-05-21T23:49:08.336Z,20.30
2019-05-21T23:51:40.540Z,21.23
2019-05-21T23:54:12.832Z,22.27
2019-05-21T23:56:44.881Z,21.70
2019-05-21T23:59:17.278Z,22.02
